Time;durP1;ratioP1;P1;durP2;ratioP2;P2;SDS_P1;SDS_P2;PMS_P1;PMS_P2;Temp;Humidity;BMP_temperature;BMP_pressure;BME280_temperature;BME280_humidity;BME280_pressure;Samples;Min_cycle;Max_cycle;Signal;HPM_P1;HPM_P2
2023/12/12 00:00:52;;;;;;;;;28.67;22.33;;;;;16.45;100.00;100298.31;2087929;28;46280;-57
2023/12/12 00:01:53;;;;;;;;;23.75;22.50;;;;;16.45;100.00;100301.00;2087907;28;46266;-58
2023/12/12 00:02:54;;;;;;;;;24.60;24.20;;;;;16.44;100.00;100293.06;2096078;28;46767;-59
2023/12/12 00:03:54;;;;;;;;;26.00;24.75;;;;;16.43;100.00;100294.88;2095730;28;47009;-59
2023/12/12 00:04:54;;;;;;;;;27.00;25.00;;;;;16.41;100.00;100298.56;2087344;28;46485;-59
2023/12/12 00:05:55;;;;;;;;;23.25;21.50;;;;;16.42;100.00;100297.63;2076962;28;46324;-59
2023/12/12 00:06:55;;;;;;;;;26.50;25.75;;;;;16.35;100.00;100289.03;2087078;28;46803;-60
2023/12/12 00:07:56;;;;;;;;;18.75;18.00;;;;;16.42;100.00;100284.25;2086450;28;46528;-58
2023/12/12 00:08:56;;;;;;;;;26.00;23.60;;;;;16.44;100.00;100285.03;2083005;28;46541;-57
2023/12/12 00:09:57;;;;;;;;;23.75;20.25;;;;;16.43;100.00;100288.66;2084112;28;46886;-58
2023/12/12 00:10:57;;;;;;;;;22.50;21.00;;;;;16.44;100.00;100293.91;2088117;28;46149;-58
2023/12/12 00:11:57;;;;;;;;;22.00;21.75;;;;;16.44;100.00;100293.06;2087956;28;46614;-60
2023/12/12 00:12:58;;;;;;;;;24.00;24.00;;;;;16.43;100.00;100294.88;2088166;28;46277;-60
2023/12/12 00:13:59;;;;;;;;;27.75;23.75;;;;;16.45;100.00;100300.13;2088272;28;45837;-61
2023/12/12 00:14:59;;;;;;;;;25.25;22.25;;;;;16.45;100.00;100302.81;2088068;28;46936;-59
2023/12/12 00:15:59;;;;;;;;;19.50;17.25;;;;;16.45;100.00;100300.13;2087849;28;46449;-56
2023/12/12 00:17:00;;;;;;;;;31.50;24.00;;;;;16.45;100.00;100303.69;2087771;28;46153;-59
2023/12/12 00:18:00;;;;;;;;;27.25;24.75;;;;;16.42;100.00;100300.31;2087963;28;46347;-57
2023/12/12 00:19:01;;;;;;;;;26.00;24.25;;;;;16.45;100.00;100302.81;2087928;28;46845;-57
2023/12/12 00:20:02;;;;;;;;;24.75;22.00;;;;;16.53;100.00;100300.63;2087727;28;46522;-57
2023/12/12 00:21:03;;;;;;;;;28.50;24.75;;;;;16.55;100.00;100306.75;2087985;28;46824;-58
2023/12/12 00:22:03;;;;;;;;;25.00;21.75;;;;;16.56;100.00;100304.94;2086758;28;46287;-58
2023/12/12 00:23:03;;;;;;;;;28.75;24.25;;;;;16.56;100.00;100304.94;2087959;28;46147;-59
2023/12/12 00:24:04;;;;;;;;;26.50;25.50;;;;;16.56;100.00;100302.25;2086157;28;46294;-59
2023/12/12 00:25:04;;;;;;;;;27.75;26.75;;;;;16.58;100.00;100301.22;2081625;28;46240;-59
2023/12/12 00:26:07;;;;;;;;;28.50;24.25;;;;;16.58;100.00;100300.34;2088121;28;46491;-60
2023/12/12 00:27:07;;;;;;;;;18.75;16.50;;;;;16.59;100.00;100294.91;2087473;28;46763;-59
2023/12/12 00:28:08;;;;;;;;;23.75;23.75;;;;;16.60;100.00;100285.06;2080339;28;46254;-58
2023/12/12 00:29:08;;;;;;;;;24.75;24.75;;;;;16.61;100.00;100284.13;2088145;28;46598;-59
2023/12/12 00:30:09;;;;;;;;;25.75;24.25;;;;;16.61;100.00;100282.31;2087832;28;46424;-59
2023/12/12 00:31:09;;;;;;;;;24.75;20.50;;;;;16.55;100.00;100277.28;2087979;28;46569;-57
2023/12/12 00:32:09;;;;;;;;;25.50;22.75;;;;;16.51;100.00;100285.53;2087221;28;46782;-59
2023/12/12 00:33:09;;;;;;;;;25.33;22.67;;;;;16.52;100.00;100289.97;2087300;28;46298;-58
2023/12/12 00:34:10;;;;;;;;;27.50;26.25;;;;;16.51;100.00;100285.53;2080952;28;46617;-59
2023/12/12 00:35:10;;;;;;;;;25.75;25.25;;;;;16.59;100.00;100283.34;2084675;28;46260;-59
2023/12/12 00:36:11;;;;;;;;;23.25;21.50;;;;;16.60;100.00;100285.94;2088061;28;46794;-59
2023/12/12 00:37:11;;;;;;;;;25.00;23.75;;;;;16.61;100.00;100281.44;2087063;28;46705;-59
2023/12/12 00:38:11;;;;;;;;;23.50;21.75;;;;;16.62;100.00;100281.34;2087958;28;46226;-59
2023/12/12 00:39:12;;;;;;;;;21.25;20.25;;;;;16.62;100.00;100276.00;2088043;28;46298;-58
2023/12/12 00:40:12;;;;;;;;;25.50;22.75;;;;;16.62;100.00;100276.00;2083309;28;46612;-57
2023/12/12 00:41:12;;;;;;;;;29.00;27.00;;;;;16.61;100.00;100276.94;2086711;28;46286;-57
2023/12/12 00:42:13;;;;;;;;;23.75;23.00;;;;;16.62;100.00;100277.81;2095933;28;46570;-59
2023/12/12 00:43:13;;;;;;;;;22.67;22.00;;;;;16.61;100.00;100282.31;2095621;28;46711;-59
2023/12/12 00:44:13;;;;;;;;;23.50;23.50;;;;;16.48;100.00;100275.88;2087571;28;46390;-59
2023/12/12 00:45:14;;;;;;;;;26.75;23.75;;;;;16.63;100.00;100282.22;2087456;28;46139;-59
2023/12/12 00:46:14;;;;;;;;;22.33;21.00;;;;;16.62;100.00;100273.31;2088027;28;46884;-58
2023/12/12 00:47:14;;;;;;;;;23.33;22.33;;;;;16.46;100.00;100270.59;2087957;28;46588;-59
2023/12/12 00:48:17;;;;;;;;;27.00;26.75;;;;;16.61;100.00;100265.34;2087651;28;46557;-58
2023/12/12 00:49:17;;;;;;;;;27.60;24.40;;;;;16.63;100.00;100272.34;2088066;28;45903;-58
2023/12/12 00:50:17;;;;;;;;;26.00;23.25;;;;;16.63;100.00;100267.00;2087925;28;46071;-59
2023/12/12 00:51:18;;;;;;;;;28.00;27.25;;;;;16.62;100.00;100262.59;2089327;28;46486;-59
2023/12/12 00:52:18;;;;;;;;;23.75;22.50;;;;;16.62;100.00;100257.25;2089282;28;46341;-59
2023/12/12 00:53:18;;;;;;;;;25.00;24.25;;;;;16.63;100.00;100258.09;2089689;28;46503;-60
2023/12/12 00:54:19;;;;;;;;;25.00;25.00;;;;;16.65;100.00;100259.78;2087678;28;46277;-56
2023/12/12 00:55:19;;;;;;;;;24.75;23.50;;;;;16.66;100.00;100252.59;2089343;28;46355;-60
2023/12/12 00:56:19;;;;;;;;;26.75;24.50;;;;;16.64;100.00;100258.03;2089225;28;46389;-60
2023/12/12 00:57:21;;;;;;;;;28.00;25.67;;;;;16.65;100.00;100251.75;2078265;28;46455;-59
2023/12/12 00:58:21;;;;;;;;;26.50;26.00;;;;;16.65;100.00;100251.75;2073491;28;46515;-61
2023/12/12 00:59:22;;;;;;;;;25.33;24.33;;;;;16.66;100.00;100248.09;2087333;28;46366;-61
2023/12/12 01:00:22;;;;;;;;;27.75;25.00;;;;;16.67;100.00;100249.88;2089463;28;45469;-59
2023/12/12 01:01:23;;;;;;;;;26.25;25.75;;;;;16.65;100.00;100245.50;2080179;28;46856;-59
2023/12/12 01:02:26;;;;;;;;;25.25;24.75;;;;;16.66;100.00;100252.59;2080277;28;46394;-61
2023/12/12 01:03:27;;;;;;;;;26.25;24.75;;;;;16.62;100.00;100243.84;2089464;28;46776;-61
2023/12/12 01:04:31;;;;;;;;;26.50;25.50;;;;;16.62;100.00;100251.00;2086925;28;46245;-58
2023/12/12 01:05:32;;;;;;;;;26.40;25.40;;;;;16.61;100.00;100243.94;2089375;28;46004;-58
2023/12/12 01:06:32;;;;;;;;;24.00;22.75;;;;;16.62;100.00;100245.66;2089184;28;46055;-59
2023/12/12 01:07:32;;;;;;;;;21.00;18.75;;;;;16.62;100.00;100246.53;2087058;28;46631;-59
2023/12/12 01:08:33;;;;;;;;;27.67;23.00;;;;;16.64;100.00;100249.13;2089364;28;46459;-60
2023/12/12 01:09:33;;;;;;;;;27.25;23.00;;;;;16.64;100.00;100244.66;2083552;28;45270;-59
2023/12/12 01:10:34;;;;;;;;;20.00;19.33;;;;;16.64;100.00;100241.97;2086459;28;46332;-58
2023/12/12 01:11:34;;;;;;;;;25.33;22.00;;;;;16.65;100.00;100242.84;2089310;28;46719;-60
2023/12/12 01:12:36;;;;;;;;;21.67;21.33;;;;;16.67;100.00;100246.28;2085694;28;46518;-57
2023/12/12 01:13:36;;;;;;;;;26.25;22.75;;;;;16.65;100.00;100235.66;2084883;28;46600;-56
2023/12/12 01:14:37;;;;;;;;;22.00;22.00;;;;;16.63;100.00;100234.00;2087802;28;46559;-57
2023/12/12 01:15:37;;;;;;;;;21.00;21.00;;;;;16.64;100.00;100239.28;2089120;28;46616;-59
2023/12/12 01:16:37;;;;;;;;;26.75;23.75;;;;;16.64;100.00;100227.69;2089028;28;47856;-60
2023/12/12 01:17:38;;;;;;;;;22.00;21.33;;;;;16.67;100.00;100232.91;2097052;28;46721;-58
2023/12/12 01:18:38;;;;;;;;;21.67;20.67;;;;;16.68;100.00;100240.03;2096635;28;46298;-61
2023/12/12 01:19:38;;;;;;;;;23.33;23.00;;;;;16.64;100.00;100241.97;2089645;28;46347;-58
2023/12/12 01:20:39;;;;;;;;;27.50;25.00;;;;;16.68;100.00;100235.53;2089157;28;45035;-59
2023/12/12 01:21:39;;;;;;;;;25.00;23.67;;;;;16.69;100.00;100233.72;2088805;28;46264;-58
2023/12/12 01:22:40;;;;;;;;;25.00;21.00;;;;;16.67;100.00;100224.84;2084360;28;45639;-58
2023/12/12 01:23:51;;;;;;;;;23.00;21.67;;;;;16.66;100.00;100226.66;2085625;28;46142;-58
2023/12/12 01:24:51;;;;;;;;;25.50;23.00;;;;;16.67;100.00;100217.72;2083785;28;45701;-60
2023/12/12 01:25:51;;;;;;;;;22.33;22.33;;;;;16.69;100.00;100225.66;2089173;28;46846;-57
2023/12/12 01:26:52;;;;;;;;;20.33;20.33;;;;;16.68;100.00;100221.25;2085970;28;45579;-59
2023/12/12 01:27:52;;;;;;;;;23.33;21.00;;;;;16.69;100.00;100217.63;2089003;28;46553;-59
2023/12/12 01:28:52;;;;;;;;;22.33;21.33;;;;;16.68;100.00;100221.25;2089412;28;46091;-59
2023/12/12 01:29:54;;;;;;;;;20.67;18.67;;;;;16.68;100.00;100223.94;2089151;28;46755;-59
2023/12/12 01:30:54;;;;;;;;;22.00;21.75;;;;;16.66;100.00;100215.97;2088490;28;46800;-61
2023/12/12 01:31:55;;;;;;;;;23.67;23.00;;;;;16.49;100.00;100216.84;2088255;28;46514;-58
2023/12/12 01:32:55;;;;;;;;;22.50;18.50;;;;;16.48;100.00;100223.16;2088700;28;45664;-57
2023/12/12 01:33:55;;;;;;;;;22.33;21.67;;;;;16.41;100.00;100218.22;2088678;28;45599;-59
2023/12/12 01:34:56;;;;;;;;;28.00;22.33;;;;;16.55;100.00;100220.16;2087263;28;45190;-59
2023/12/12 01:35:56;;;;;;;;;24.33;22.33;;;;;16.64;100.00;100209.81;2088760;28;46912;-56
2023/12/12 01:36:56;;;;;;;;;22.67;18.67;;;;;16.64;100.00;100211.59;2084162;28;45552;-58
2023/12/12 01:37:57;;;;;;;;;26.67;22.67;;;;;16.66;100.00;100207.06;2089188;28;46603;-60
2023/12/12 01:38:57;;;;;;;;;24.67;21.67;;;;;16.67;100.00;100204.31;2089200;28;46284;-59
2023/12/12 01:39:58;;;;;;;;;23.67;21.33;;;;;16.63;100.00;100210.75;2089265;28;46396;-58
2023/12/12 01:40:58;;;;;;;;;23.67;21.00;;;;;16.65;100.00;100206.19;2082389;28;46389;-58
2023/12/12 01:41:58;;;;;;;;;25.00;24.67;;;;;16.46;100.00;100203.63;2082863;28;46590;-59
2023/12/12 01:43:05;;;;;;;;;25.00;24.00;;;;;16.68;100.00;100211.41;2089018;28;46373;-57
2023/12/12 01:44:06;;;;;;;;;31.00;26.25;;;;;16.66;100.00;100207.91;2089163;28;46742;-58
2023/12/12 01:45:07;;;;;;;;;24.33;22.33;;;;;16.59;100.00;100213.69;2088581;28;46431;-59
2023/12/12 01:46:09;;;;;;;;;21.25;20.50;;;;;16.70;100.00;100216.69;2079252;28;47006;-58
2023/12/12 01:47:10;;;;;;;;;25.00;24.25;;;;;16.72;100.00;100214.78;2079828;28;46529;-58
2023/12/12 01:48:10;;;;;;;;;29.50;25.00;;;;;16.71;100.00;100215.72;2079667;28;46312;-59
2023/12/12 01:49:12;;;;;;;;;22.67;21.33;;;;;16.60;100.00;100208.25;2079403;28;47018;-58
2023/12/12 01:50:13;;;;;;;;;27.00;25.25;;;;;16.63;100.00;100210.75;2074728;28;46355;-59
2023/12/12 01:51:14;;;;;;;;;30.00;25.67;;;;;16.63;100.00;100209.88;2079271;28;46354;-59
2023/12/12 01:52:15;;;;;;;;;21.75;21.50;;;;;16.61;100.00;100209.09;2079711;28;46530;-57
2023/12/12 01:53:19;;;;;;;;;21.25;20.25;;;;;16.65;100.00;100206.19;2079907;28;46351;-58
2023/12/12 01:54:19;;;;;;;;;26.75;24.25;;;;;16.66;100.00;100209.75;2078506;28;45604;-59
2023/12/12 01:55:20;;;;;;;;;26.33;22.67;;;;;16.59;100.00;100203.84;2077890;28;46600;-59
2023/12/12 01:56:21;;;;;;;;;25.67;20.33;;;;;16.59;100.00;100203.84;2079456;28;46809;-57
2023/12/12 01:57:21;;;;;;;;;23.00;21.67;;;;;16.71;100.00;100205.88;2079583;28;46617;-56
2023/12/12 01:58:24;;;;;;;;;23.00;21.00;;;;;16.72;100.00;100209.41;2075320;28;46317;-58
2023/12/12 01:59:25;;;;;;;;;24.00;22.50;;;;;16.74;100.00;100219.09;2075191;28;46721;-58
2023/12/12 02:00:26;;;;;;;;;24.50;24.50;;;;;16.73;100.00;100209.31;2079748;28;45716;-59
2023/12/12 02:01:27;;;;;;;;;23.33;22.33;;;;;16.72;100.00;100212.09;2079449;28;46539;-59
2023/12/12 02:02:27;;;;;;;;;21.67;20.67;;;;;16.72;100.00;100217.44;2077972;28;47733;-58
2023/12/12 02:03:30;;;;;;;;;23.33;21.67;;;;;16.71;100.00;100213.91;2079581;28;46284;-57
2023/12/12 02:04:30;;;;;;;;;24.00;22.75;;;;;16.74;100.00;100212.88;2079483;28;46552;-57
2023/12/12 02:05:32;;;;;;;;;22.00;21.00;;;;;16.74;100.00;100213.72;2079587;28;46335;-58
2023/12/12 02:06:33;;;;;;;;;26.50;22.25;;;;;16.58;100.00;100210.13;2075761;28;46862;-58
2023/12/12 02:07:35;;;;;;;;;20.33;16.00;;;;;16.71;100.00;100202.34;2076234;28;47131;-58
2023/12/12 02:08:36;;;;;;;;;21.50;19.00;;;;;16.57;100.00;100203.06;2079543;28;46570;-58
2023/12/12 02:09:37;;;;;;;;;21.25;20.00;;;;;16.52;100.00;100202.47;2061957;28;46439;-57
2023/12/12 02:10:37;;;;;;;;;21.33;20.00;;;;;16.73;100.00;100198.59;2061305;28;46835;-58
2023/12/12 02:11:38;;;;;;;;;24.67;21.00;;;;;16.76;100.00;100194.88;2080034;28;46200;-58
2023/12/12 02:12:38;;;;;;;;;19.67;17.33;;;;;16.78;100.00;100193.03;2079114;28;46372;-59
2023/12/12 02:13:38;;;;;;;;;18.33;18.33;;;;;16.70;100.00;100197.94;2079857;28;46079;-60
2023/12/12 02:14:39;;;;;;;;;22.00;21.00;;;;;16.61;100.00;100193.91;2062870;28;46609;-57
2023/12/12 02:15:39;;;;;;;;;22.67;21.00;;;;;16.67;100.00;100192.72;2063087;28;46224;-58
2023/12/12 02:16:39;;;;;;;;;21.67;19.67;;;;;16.70;100.00;100188.06;2071019;28;46263;-59
2023/12/12 02:17:40;;;;;;;;;18.33;18.33;;;;;16.68;100.00;100189.97;2077132;28;46010;-59
2023/12/12 02:18:40;;;;;;;;;20.00;18.67;;;;;16.30;100.00;100192.03;2088791;28;46514;-58
2023/12/12 02:19:40;;;;;;;;;16.67;16.67;;;;;16.69;100.00;100186.34;2088637;28;45996;-59
2023/12/12 02:20:41;;;;;;;;;19.33;16.00;;;;;16.75;100.00;100186.00;2088890;28;46617;-58
2023/12/12 02:21:42;;;;;;;;;15.67;15.00;;;;;16.79;100.00;100183.16;2071137;28;46722;-59
2023/12/12 02:22:43;;;;;;;;;20.33;20.33;;;;;16.81;100.00;100181.25;2071918;28;46462;-58
2023/12/12 02:23:43;;;;;;;;;18.33;18.00;;;;;16.82;100.00;100180.31;2088764;28;47192;-59
2023/12/12 02:24:43;;;;;;;;;19.00;17.00;;;;;16.82;100.00;100173.13;2088583;28;46561;-59
2023/12/12 02:25:44;;;;;;;;;16.33;13.67;;;;;16.84;100.00;100171.22;2088622;28;45706;-60
2023/12/12 02:26:44;;;;;;;;;15.33;15.33;;;;;16.83;100.00;100163.28;2088861;28;46830;-58
2023/12/12 02:27:46;;;;;;;;;19.67;17.33;;;;;16.85;100.00;100162.22;2085743;28;46220;-58
2023/12/12 02:28:46;;;;;;;;;16.50;15.25;;;;;16.85;100.00;100167.59;2080494;28;46637;-59
2023/12/12 02:29:47;;;;;;;;;17.33;15.67;;;;;16.86;100.00;100172.00;2080645;28;46527;-59
2023/12/12 02:30:47;;;;;;;;;15.33;14.33;;;;;16.85;100.00;100162.22;2081002;28;46256;-59
2023/12/12 02:31:48;;;;;;;;;17.00;15.33;;;;;16.85;100.00;100164.03;2088454;28;46278;-56
2023/12/12 02:32:48;;;;;;;;;15.67;15.67;;;;;16.86;100.00;100155.06;2088950;28;45214;-58
2023/12/12 02:33:49;;;;;;;;;15.00;14.67;;;;;16.86;100.00;100161.28;2088435;28;46336;-58
2023/12/12 02:34:49;;;;;;;;;14.33;12.67;;;;;16.88;100.00;100161.19;2082736;28;46510;-59
2023/12/12 02:35:49;;;;;;;;;15.00;15.00;;;;;16.87;100.00;100159.47;2088717;28;46217;-58
2023/12/12 02:36:50;;;;;;;;;19.00;18.33;;;;;16.89;100.00;100169.13;2078836;28;46890;-58
2023/12/12 02:37:50;;;;;;;;;16.67;16.33;;;;;16.89;100.00;100166.44;2079234;28;46632;-58
2023/12/12 02:38:51;;;;;;;;;15.00;13.67;;;;;16.92;100.00;100160.09;2088866;28;46676;-59
2023/12/12 02:39:51;;;;;;;;;12.33;12.33;;;;;16.91;100.00;100163.72;2088371;28;46946;-60
2023/12/12 02:40:51;;;;;;;;;17.33;16.00;;;;;16.93;100.00;100161.81;2088533;28;46471;-58
2023/12/12 02:41:51;;;;;;;;;14.67;14.33;;;;;16.92;100.00;100152.91;2087614;28;46374;-57
2023/12/12 02:42:52;;;;;;;;;13.33;13.00;;;;;16.92;100.00;100150.22;2088340;28;45568;-57
2023/12/12 02:43:52;;;;;;;;;16.33;15.67;;;;;16.93;100.00;100145.72;2088147;28;46065;-58
2023/12/12 02:44:56;;;;;;;;;13.00;13.00;;;;;16.93;100.00;100145.72;2088549;28;46356;-58
2023/12/12 02:45:56;;;;;;;;;16.50;13.50;;;;;16.93;100.00;100148.41;2088725;28;46468;-60
2023/12/12 02:46:57;;;;;;;;;16.00;14.67;;;;;16.93;100.00;100149.28;2087019;28;46530;-58
2023/12/12 02:47:58;;;;;;;;;16.75;16.75;;;;;16.96;100.00;100145.53;2088752;28;46819;-59
2023/12/12 02:48:58;;;;;;;;;15.33;15.33;;;;;16.97;100.00;100141.91;2089080;28;46689;-58
2023/12/12 02:49:58;;;;;;;;;13.00;13.00;;;;;16.98;100.00;100132.91;2088630;28;46592;-60
2023/12/12 02:50:59;;;;;;;;;5.33;4.67;;;;;16.97;100.00;100128.50;2088553;28;46516;-58
2023/12/12 02:51:59;;;;;;;;;14.00;13.00;;;;;16.96;100.00;100133.00;2088911;28;45534;-58
2023/12/12 02:52:59;;;;;;;;;16.00;14.67;;;;;16.95;100.00;100125.91;2083784;28;46364;-58
2023/12/12 02:54:00;;;;;;;;;15.00;15.00;;;;;16.95;100.00;100119.69;2088426;28;46237;-58
2023/12/12 02:55:00;;;;;;;;;16.67;15.00;;;;;16.95;100.00;100112.50;2088799;28;46683;-60
2023/12/12 02:56:00;;;;;;;;;17.00;17.00;;;;;16.95;100.00;100114.34;2085106;28;46790;-58
2023/12/12 02:57:00;;;;;;;;;16.67;13.67;;;;;16.95;100.00;100104.47;2081331;28;46347;-59
2023/12/12 02:58:01;;;;;;;;;16.67;15.00;;;;;16.94;100.00;100105.44;2088281;28;46162;-58
2023/12/12 02:59:01;;;;;;;;;15.00;12.00;;;;;16.95;100.00;100100.94;2088427;28;46558;-59
2023/12/12 03:00:03;;;;;;;;;15.00;12.00;;;;;16.95;100.00;100099.13;2088063;28;46340;-58
2023/12/12 03:01:04;;;;;;;;;12.25;12.25;;;;;16.94;100.00;100092.03;2086820;28;46334;-57
2023/12/12 03:02:04;;;;;;;;;12.67;12.67;;;;;16.96;100.00;100108.00;2087587;28;46822;-59
2023/12/12 03:03:04;;;;;;;;;13.00;12.67;;;;;16.94;100.00;100099.19;2080171;28;46638;-58
2023/12/12 03:04:04;;;;;;;;;12.00;12.00;;;;;16.97;100.00;100094.53;2084924;28;46453;-58
2023/12/12 03:05:05;;;;;;;;;14.67;12.67;;;;;16.96;100.00;100095.47;2088733;28;46291;-59
2023/12/12 03:06:07;;;;;;;;;13.00;11.67;;;;;16.97;100.00;100090.97;2088446;28;46188;-59
2023/12/12 03:07:07;;;;;;;;;13.50;12.00;;;;;16.97;100.00;100089.16;2088059;28;46676;-59
2023/12/12 03:08:08;;;;;;;;;12.33;11.00;;;;;16.98;100.00;100081.97;2088817;28;46784;-59
2023/12/12 03:09:08;;;;;;;;;12.33;12.33;;;;;16.96;100.00;100082.06;2088386;28;46389;-58
2023/12/12 03:10:09;;;;;;;;;11.33;10.33;;;;;16.97;100.00;100085.63;2088429;28;46774;-58
2023/12/12 03:11:09;;;;;;;;;11.75;10.50;;;;;17.01;100.00;100087.16;2088317;28;46426;-61
2023/12/12 03:12:10;;;;;;;;;13.33;13.33;;;;;16.99;100.00;100079.22;2086938;28;46637;-58
2023/12/12 03:13:10;;;;;;;;;14.67;13.67;;;;;16.99;100.00;100073.84;2087208;28;46602;-58
2023/12/12 03:14:10;;;;;;;;;13.33;11.33;;;;;16.99;100.00;100079.22;2088309;28;46202;-57
2023/12/12 03:15:11;;;;;;;;;14.67;13.67;;;;;17.00;100.00;100080.94;2088224;28;46274;-58
2023/12/12 03:16:11;;;;;;;;;12.67;12.00;;;;;17.00;100.00;100082.75;2088613;28;46552;-57
2023/12/12 03:17:12;;;;;;;;;14.00;13.00;;;;;17.01;100.00;100087.16;2087660;28;46214;-60
2023/12/12 03:18:12;;;;;;;;;13.33;13.33;;;;;17.03;100.00;100093.31;2086814;28;46434;-58
2023/12/12 03:19:12;;;;;;;;;13.67;13.00;;;;;17.04;100.00;100101.28;2088322;28;46361;-58
2023/12/12 03:20:13;;;;;;;;;13.00;11.67;;;;;17.02;100.00;100096.91;2088335;28;45936;-58
2023/12/12 03:21:13;;;;;;;;;14.00;14.00;;;;;17.02;100.00;100094.25;2088333;28;46836;-57
2023/12/12 03:22:14;;;;;;;;;13.67;10.00;;;;;16.99;100.00;100089.06;2079007;28;46250;-56
2023/12/12 03:23:14;;;;;;;;;15.00;13.00;;;;;16.42;100.00;100086.91;2079577;28;45653;-59
2023/12/12 03:24:15;;;;;;;;;15.00;13.67;;;;;16.38;100.00;100081.81;2088685;28;46199;-57
2023/12/12 03:25:15;;;;;;;;;13.00;13.00;;;;;16.48;100.00;100085.69;2088109;28;46245;-58
2023/12/12 03:26:16;;;;;;;;;14.00;12.67;;;;;16.71;100.00;100079.94;2088599;28;46181;-57
2023/12/12 03:27:16;;;;;;;;;15.00;13.00;;;;;16.84;100.00;100077.44;2088320;28;46866;-60
2023/12/12 03:28:17;;;;;;;;;14.33;13.67;;;;;16.89;100.00;100075.31;2088154;28;46723;-58
2023/12/12 03:29:17;;;;;;;;;9.50;9.50;;;;;16.93;100.00;100065.31;2088387;28;46843;-58
2023/12/12 03:30:18;;;;;;;;;10.67;10.33;;;;;16.93;100.00;100065.31;2087916;28;46684;-57
2023/12/12 03:31:18;;;;;;;;;10.00;10.00;;;;;16.94;100.00;100065.22;2087751;28;46227;-57
2023/12/12 03:32:18;;;;;;;;;11.33;11.00;;;;;16.96;100.00;100055.28;2079911;28;46265;-58
2023/12/12 03:33:19;;;;;;;;;14.33;13.33;;;;;16.94;100.00;100056.31;2085043;28;46362;-58
2023/12/12 03:34:19;;;;;;;;;12.67;12.00;;;;;16.92;100.00;100051.06;2088212;28;46807;-59
2023/12/12 03:35:19;;;;;;;;;13.33;12.33;;;;;16.95;100.00;100050.00;2086802;28;46482;-57
2023/12/12 03:36:19;;;;;;;;;15.00;12.67;;;;;16.96;100.00;100049.03;2087600;28;46723;-59
2023/12/12 03:37:20;;;;;;;;;15.00;13.00;;;;;16.97;100.00;100051.63;2088285;28;46415;-62
2023/12/12 03:38:20;;;;;;;;;11.33;11.33;;;;;16.98;100.00;100053.34;2088287;28;46208;-59
2023/12/12 03:39:21;;;;;;;;;7.67;7.67;;;;;16.96;100.00;100041.88;2088490;28;45152;-61
2023/12/12 03:40:21;;;;;;;;;11.00;11.00;;;;;16.95;100.00;100045.50;2088122;28;46704;-58
2023/12/12 03:41:23;;;;;;;;;11.00;10.00;;;;;16.95;100.00;100045.50;2083843;28;46667;-59
2023/12/12 03:42:23;;;;;;;;;10.25;9.25;;;;;16.95;100.00;100045.50;2081017;28;46393;-59
2023/12/12 03:43:24;;;;;;;;;9.33;9.33;;;;;16.95;100.00;100039.28;2087242;28;46541;-57
2023/12/12 03:44:24;;;;;;;;;12.00;12.00;;;;;16.95;100.00;100037.47;2087694;28;46389;-57
2023/12/12 03:45:24;;;;;;;;;13.33;12.00;;;;;16.96;100.00;100033.81;2088220;28;46435;-59
2023/12/12 03:46:25;;;;;;;;;15.33;12.33;;;;;16.97;100.00;100038.22;2088102;28;46307;-58
2023/12/12 03:47:25;;;;;;;;;11.33;11.33;;;;;16.95;100.00;100028.56;2084518;28;46539;-58
2023/12/12 03:48:25;;;;;;;;;11.00;11.00;;;;;16.94;100.00;100029.53;2088321;28;46466;-58
2023/12/12 03:49:26;;;;;;;;;12.33;12.33;;;;;16.93;100.00;100030.47;2088517;28;46752;-60
2023/12/12 03:50:26;;;;;;;;;15.67;13.33;;;;;16.93;100.00;100025.13;2088208;28;46243;-58
2023/12/12 03:51:26;;;;;;;;;15.33;14.33;;;;;16.93;100.00;100017.06;2088419;28;46590;-59
2023/12/12 03:52:27;;;;;;;;;15.67;14.67;;;;;16.93;100.00;100020.63;2087913;28;46480;-59
2023/12/12 03:53:27;;;;;;;;;13.67;11.00;;;;;16.93;100.00;100020.63;2087974;28;46216;-59
2023/12/12 03:54:31;;;;;;;;;15.00;13.33;;;;;16.93;100.00;100022.44;2087525;28;46100;-58
2023/12/12 03:55:31;;;;;;;;;13.50;10.50;;;;;16.91;100.00;100025.22;2085287;28;46349;-58
2023/12/12 03:56:32;;;;;;;;;13.00;11.33;;;;;16.88;100.00;100011.97;2088066;28;46751;-60
2023/12/12 03:57:32;;;;;;;;;9.00;9.00;;;;;16.89;100.00;100013.69;2087959;28;46794;-60
2023/12/12 03:58:32;;;;;;;;;12.00;12.00;;;;;16.88;100.00;100013.78;2088109;28;46360;-60
2023/12/12 03:59:33;;;;;;;;;14.00;11.00;;;;;16.88;100.00;100011.09;2088149;28;45544;-58
2023/12/12 04:00:33;;;;;;;;;14.33;14.33;;;;;16.68;100.00;100007.78;2088007;28;46718;-59
2023/12/12 04:01:33;;;;;;;;;17.00;13.33;;;;;16.63;100.00;100001.78;2087815;28;46967;-58
2023/12/12 04:02:34;;;;;;;;;13.33;13.00;;;;;16.62;100.00;100008.09;2088029;28;46527;-58
2023/12/12 04:03:34;;;;;;;;;12.33;12.33;;;;;16.80;100.00;100000.84;2088156;28;46274;-59
2023/12/12 04:04:34;;;;;;;;;12.00;11.67;;;;;16.84;100.00;99999.72;2088106;28;46382;-59
2023/12/12 04:05:35;;;;;;;;;14.67;14.67;;;;;16.77;100.00;100007.25;2095141;28;46399;-58
2023/12/12 04:06:45;;;;;;;;;14.67;14.67;;;;;16.74;100.00;100002.06;2088882;28;46377;-57
2023/12/12 04:07:46;;;;;;;;;12.75;11.50;;;;;16.78;100.00;100000.09;2087092;28;46478;-59
2023/12/12 04:08:46;;;;;;;;;13.67;12.67;;;;;16.75;100.00;99995.75;2088170;28;46575;-58
2023/12/12 04:09:46;;;;;;;;;13.00;11.67;;;;;16.80;100.00;100000.00;2088432;28;46571;-58
2023/12/12 04:10:47;;;;;;;;;14.00;14.00;;;;;16.84;100.00;99993.50;2087882;28;46245;-57
2023/12/12 04:11:47;;;;;;;;;14.00;13.33;;;;;16.84;100.00;99999.72;2086593;28;46621;-60
2023/12/12 04:12:48;;;;;;;;;15.00;14.00;;;;;16.86;100.00;99994.25;2087905;28;46634;-59
2023/12/12 04:13:48;;;;;;;;;13.00;12.67;;;;;16.85;100.00;99993.38;2087940;28;46731;-59
2023/12/12 04:14:48;;;;;;;;;13.67;12.67;;;;;16.84;100.00;99989.00;2088299;28;46335;-57
2023/12/12 04:15:49;;;;;;;;;11.67;10.33;;;;;16.85;100.00;99995.22;2088305;28;46863;-60
2023/12/12 04:16:49;;;;;;;;;12.00;11.00;;;;;16.84;100.00;99999.72;2088440;28;46280;-59
2023/12/12 04:17:49;;;;;;;;;14.00;13.00;;;;;16.85;100.00;99997.88;2088151;28;46190;-59
2023/12/12 04:18:50;;;;;;;;;12.67;12.67;;;;;16.84;100.00;99998.84;2088144;28;46348;-58
2023/12/12 04:19:51;;;;;;;;;18.00;16.00;;;;;16.85;100.00;100001.44;2087937;28;46611;-59
2023/12/12 04:20:51;;;;;;;;;14.67;14.67;;;;;16.84;100.00;99999.72;2088030;28;46299;-59
2023/12/12 04:21:52;;;;;;;;;15.67;13.67;;;;;16.87;100.00;99988.81;2088155;28;46644;-60
2023/12/12 04:22:52;;;;;;;;;17.67;14.33;;;;;16.90;100.00;99987.78;2088117;28;46832;-59
2023/12/12 04:23:52;;;;;;;;;15.00;14.00;;;;;16.90;100.00;99983.28;2087477;28;46590;-59
2023/12/12 04:24:53;;;;;;;;;12.67;12.67;;;;;16.91;100.00;99995.72;2081092;28;46921;-57
2023/12/12 04:25:53;;;;;;;;;15.33;14.00;;;;;16.91;100.00;99995.72;2087250;28;46249;-59
2023/12/12 04:26:53;;;;;;;;;13.67;13.33;;;;;16.92;100.00;99992.09;2086206;28;46305;-59
2023/12/12 04:27:53;;;;;;;;;15.33;13.67;;;;;16.88;100.00;99990.53;2086835;28;46221;-59
2023/12/12 04:28:54;;;;;;;;;14.33;14.33;;;;;16.89;100.00;99992.25;2086921;28;46591;-59
2023/12/12 04:29:54;;;;;;;;;14.33;13.00;;;;;16.95;100.00;99996.41;2083013;28;46904;-60
2023/12/12 04:30:54;;;;;;;;;14.67;14.67;;;;;16.95;100.00;99986.53;2087810;28;46173;-60
2023/12/12 04:31:56;;;;;;;;;15.67;13.67;;;;;16.94;100.00;99986.63;2087761;28;46163;-60
2023/12/12 04:32:56;;;;;;;;;13.50;12.00;;;;;16.96;100.00;99992.75;2087670;28;46515;-59